createdAt,value
2023-05-17T00:03:16.799Z,15.88
2023-05-17T00:06:01.999Z,16.30
2023-05-17T00:08:47.116Z,14.32
2023-05-17T00:11:32.645Z,15.95
2023-05-17T00:14:17.661Z,14.27
2023-05-17T01:01:22.806Z,13.73
2023-05-17T01:04:09.069Z,12.82
2023-05-17T01:06:54.201Z,13.95
2023-05-17T01:09:49.046Z,10.23
2023-05-17T01:12:34.242Z,13.48
2023-05-17T01:46:54.147Z,11.63
2023-05-17T01:49:40.969Z,12.85
2023-05-17T01:52:49.836Z,10.98
2023-05-17T01:55:41.727Z,9.73
2023-05-17T01:58:29.015Z,14.20
2023-05-17T02:46:51.923Z,10.13
2023-05-17T02:49:37.260Z,13.85
2023-05-17T02:52:22.312Z,12.48
2023-05-17T02:55:07.857Z,9.30
2023-05-17T02:57:53.127Z,10.15
2023-05-17T03:46:16.892Z,9.77
2023-05-17T03:49:03.041Z,9.02
2023-05-17T03:51:50.495Z,9.63
2023-05-17T03:54:36.878Z,10.23
2023-05-17T03:57:22.190Z,11.88
2023-05-17T04:46:25.406Z,7.50
2023-05-17T04:49:11.543Z,11.25
2023-05-17T04:51:57.016Z,9.30
2023-05-17T04:54:42.530Z,7.90
2023-05-17T04:57:27.991Z,11.93
2023-05-17T05:00:17.121Z,8.03
2023-05-17T05:03:07.531Z,7.93
2023-05-17T05:05:53.678Z,8.75
2023-05-17T05:08:39.173Z,8.35
2023-05-17T05:11:27.003Z,7.55
2023-05-17T05:14:12.690Z,10.57
2023-05-17T05:16:59.214Z,10.90
2023-05-17T05:19:44.549Z,7.75
2023-05-17T05:22:30.516Z,5.93
2023-05-17T05:25:16.100Z,9.60
2023-05-17T05:28:00.933Z,11.73
2023-05-17T05:30:47.532Z,8.77
2023-05-17T05:33:33.793Z,10.52
2023-05-17T05:36:19.371Z,12.00
2023-05-17T05:39:07.235Z,8.65
2023-05-17T05:41:54.908Z,8.97
2023-05-17T05:44:40.356Z,14.27
2023-05-17T05:47:27.251Z,11.65
2023-05-17T05:50:12.776Z,8.70
2023-05-17T05:53:14.530Z,9.73
2023-05-17T05:56:06.786Z,9.53
2023-05-17T05:58:52.076Z,11.02
2023-05-17T06:01:37.548Z,9.65
2023-05-17T06:04:32.828Z,8.80
2023-05-17T06:07:26.357Z,10.60
2023-05-17T06:10:12.012Z,10.27
2023-05-17T06:12:57.489Z,6.88
2023-05-17T06:15:42.900Z,9.57
2023-05-17T06:18:28.339Z,10.35
2023-05-17T06:21:15.906Z,9.00
2023-05-17T06:24:02.815Z,11.27
2023-05-17T06:26:49.522Z,9.13
2023-05-17T06:29:34.853Z,9.60
2023-05-17T06:32:20.074Z,8.77
2023-05-17T06:35:06.739Z,9.73
2023-05-17T06:37:51.797Z,7.27
2023-05-17T06:40:37.362Z,6.97
2023-05-17T06:43:22.801Z,7.63
2023-05-17T06:46:07.922Z,7.90
2023-05-17T06:48:53.475Z,9.40
2023-05-17T06:51:38.930Z,6.90
2023-05-17T06:54:24.510Z,6.70
2023-05-17T06:57:10.077Z,7.35
2023-05-17T06:59:55.158Z,9.50
2023-05-17T07:02:40.410Z,10.55
2023-05-17T07:05:26.054Z,7.07
2023-05-17T07:08:11.171Z,10.50
2023-05-17T07:10:56.637Z,6.47
2023-05-17T07:13:42.341Z,5.68
2023-05-17T07:16:27.303Z,8.35
2023-05-17T07:19:12.808Z,7.57
2023-05-17T07:21:58.166Z,6.25
2023-05-17T07:24:43.803Z,5.32
2023-05-17T07:27:29.115Z,6.75
2023-05-17T07:30:14.491Z,6.57
2023-05-17T07:32:59.781Z,6.13
2023-05-17T07:35:45.336Z,6.00
2023-05-17T07:38:30.569Z,7.93
2023-05-17T07:41:17.140Z,7.50
2023-05-17T07:44:02.530Z,7.80
2023-05-17T07:46:48.175Z,7.27
2023-05-17T07:49:33.730Z,7.47
2023-05-17T07:52:20.261Z,7.88
2023-05-17T07:55:05.932Z,6.03
2023-05-17T07:57:52.436Z,6.13
2023-05-17T08:00:37.751Z,5.87
2023-05-17T08:03:23.532Z,6.13
2023-05-17T08:06:08.687Z,4.40
2023-05-17T08:08:53.874Z,7.22
2023-05-17T08:11:45.877Z,5.63
2023-05-17T08:14:31.527Z,6.17
2023-05-17T08:17:16.863Z,5.63
2023-05-17T08:20:01.838Z,5.32
2023-05-17T08:22:47.095Z,6.53
2023-05-17T08:25:32.783Z,5.95
2023-05-17T08:28:18.378Z,5.97
2023-05-17T08:31:04.173Z,5.28
2023-05-17T08:33:49.320Z,5.22
2023-05-17T08:36:34.690Z,5.20
2023-05-17T08:39:21.146Z,5.90
2023-05-17T08:42:09.846Z,4.40
2023-05-17T08:44:55.052Z,3.88
2023-05-17T08:47:42.329Z,4.97
2023-05-17T08:50:29.888Z,6.00
2023-05-17T08:53:16.545Z,4.68
2023-05-17T08:56:04.424Z,4.27
2023-05-17T08:58:57.015Z,4.40
2023-05-17T09:01:43.811Z,4.90
2023-05-17T09:04:30.515Z,4.60
2023-05-17T09:07:17.289Z,4.25
2023-05-17T09:10:05.623Z,4.33
2023-05-17T09:12:52.744Z,4.03
2023-05-17T09:15:38.712Z,5.13
2023-05-17T09:18:32.055Z,5.75
2023-05-17T09:21:17.865Z,4.07
2023-05-17T09:24:07.796Z,4.50
2023-05-17T09:26:53.800Z,3.58
2023-05-17T09:29:39.201Z,3.85
2023-05-17T09:32:28.485Z,5.43
2023-05-17T09:35:14.120Z,4.00
2023-05-17T09:38:09.412Z,5.40
2023-05-17T09:40:54.487Z,5.47
2023-05-17T09:43:39.682Z,4.03
2023-05-17T09:46:25.148Z,5.20
2023-05-17T09:49:10.230Z,6.43
2023-05-17T09:51:55.398Z,5.30
2023-05-17T09:54:41.274Z,4.18
2023-05-17T09:57:28.010Z,5.10
2023-05-17T10:00:13.672Z,5.82
2023-05-17T10:02:59.480Z,4.93
2023-05-17T10:05:45.863Z,5.10
2023-05-17T10:08:31.827Z,4.85
2023-05-17T10:11:18.361Z,3.83
2023-05-17T10:14:15.752Z,5.00
2023-05-17T10:17:02.963Z,6.00
2023-05-17T10:19:48.345Z,4.77
2023-05-17T10:22:33.926Z,4.45
2023-05-17T10:25:19.196Z,4.40
2023-05-17T10:28:06.903Z,4.80
2023-05-17T10:30:53.704Z,5.15
2023-05-17T10:33:39.685Z,6.30
2023-05-17T10:36:25.622Z,5.85
2023-05-17T10:39:11.172Z,4.95
2023-05-17T10:42:10.755Z,4.55
2023-05-17T10:45:01.280Z,6.22
2023-05-17T10:47:46.733Z,4.80
2023-05-17T10:50:32.470Z,5.05
2023-05-17T10:53:17.350Z,5.65
2023-05-17T10:56:02.906Z,4.15
2023-05-17T10:58:47.915Z,4.80
2023-05-17T11:01:54.764Z,5.83
2023-05-17T11:04:41.503Z,5.88
2023-05-17T11:07:32.301Z,5.05
2023-05-17T11:10:18.324Z,4.70
2023-05-17T11:13:22.206Z,5.05
2023-05-17T11:16:07.713Z,5.70
2023-05-17T11:18:54.040Z,5.32
2023-05-17T11:21:46.306Z,6.47
2023-05-17T11:24:31.581Z,5.28
2023-05-17T11:27:18.541Z,5.60
2023-05-17T11:30:24.643Z,4.23
2023-05-17T11:33:17.196Z,4.78
2023-05-17T11:36:20.497Z,4.50
2023-05-17T11:39:10.316Z,4.88
2023-05-17T11:41:56.513Z,5.07
2023-05-17T11:44:41.704Z,4.83
2023-05-17T11:47:27.656Z,4.35
2023-05-17T11:50:14.635Z,3.60
2023-05-17T11:53:00.199Z,6.45
2023-05-17T11:55:47.371Z,5.25
2023-05-17T11:58:32.601Z,5.33
2023-05-17T12:01:18.314Z,4.55
2023-05-17T12:04:03.645Z,4.85
2023-05-17T12:06:48.889Z,5.50
2023-05-17T12:09:34.852Z,4.78
2023-05-17T12:12:22.303Z,3.93
2023-05-17T12:15:07.907Z,4.78
2023-05-17T12:17:54.378Z,4.75
2023-05-17T12:20:39.509Z,4.68
2023-05-17T12:23:28.886Z,5.53
2023-05-17T12:26:18.206Z,4.43
2023-05-17T12:29:03.480Z,6.10
2023-05-17T12:31:50.152Z,4.40
2023-05-17T12:34:35.568Z,5.18
2023-05-17T12:37:20.976Z,4.57
2023-05-17T12:40:06.973Z,4.83
2023-05-17T12:43:00.967Z,4.88
2023-05-17T12:45:47.371Z,5.97
2023-05-17T12:48:40.454Z,5.32
2023-05-17T12:51:25.913Z,4.35
2023-05-17T12:54:12.178Z,4.43
2023-05-17T12:56:57.622Z,3.90
2023-05-17T12:59:46.806Z,4.40
2023-05-17T13:02:32.035Z,4.85
2023-05-17T13:05:18.708Z,4.85
2023-05-17T13:08:20.098Z,4.77
2023-05-17T13:11:06.326Z,4.47
2023-05-17T13:13:51.605Z,4.25
2023-05-17T13:16:37.748Z,5.22
2023-05-17T13:19:22.689Z,5.18
2023-05-17T13:22:08.507Z,4.97
2023-05-17T13:24:54.280Z,4.45
2023-05-17T13:27:45.024Z,4.45
2023-05-17T13:30:30.734Z,4.30
2023-05-17T13:33:16.524Z,5.28
2023-05-17T13:36:01.407Z,3.63
2023-05-17T13:38:46.513Z,5.82
2023-05-17T13:41:31.752Z,3.47
2023-05-17T13:44:17.214Z,4.50
2023-05-17T13:47:02.519Z,5.68
2023-05-17T13:49:47.716Z,4.20
2023-05-17T13:52:33.035Z,4.80
2023-05-17T13:55:18.325Z,4.32
2023-05-17T13:58:03.877Z,6.25
2023-05-17T14:00:49.397Z,5.13
2023-05-17T14:03:35.143Z,4.50
2023-05-17T14:06:20.742Z,3.42
2023-05-17T14:09:06.353Z,4.93
2023-05-17T14:11:51.454Z,4.85
2023-05-17T14:14:36.853Z,5.50
2023-05-17T14:17:22.073Z,5.07
2023-05-17T14:20:08.314Z,6.43
2023-05-17T14:22:53.713Z,5.68
2023-05-17T14:25:39.967Z,4.35
2023-05-17T14:28:25.024Z,5.78
2023-05-17T14:31:10.695Z,3.93
2023-05-17T14:33:56.084Z,5.80
2023-05-17T14:36:41.636Z,4.50
2023-05-17T14:39:26.730Z,4.40
2023-05-17T14:42:12.170Z,4.80
2023-05-17T14:44:57.711Z,3.93
2023-05-17T14:47:43.253Z,4.35
2023-05-17T14:50:28.636Z,4.97
2023-05-17T14:53:13.973Z,4.13
2023-05-17T14:55:59.340Z,4.40
2023-05-17T14:58:44.813Z,3.97
2023-05-17T15:01:30.348Z,3.78
2023-05-17T15:04:15.780Z,4.10
2023-05-17T15:07:01.140Z,5.55
2023-05-17T15:09:46.436Z,5.45
2023-05-17T15:12:32.369Z,4.70
2023-05-17T15:15:17.940Z,5.03
2023-05-17T15:18:03.418Z,4.50
2023-05-17T15:20:48.930Z,3.35
2023-05-17T15:23:34.319Z,5.07
2023-05-17T15:26:19.596Z,4.67
2023-05-17T15:29:05.041Z,3.45
2023-05-17T15:31:50.280Z,6.82
2023-05-17T15:34:36.585Z,4.68
2023-05-17T15:37:21.764Z,3.63
2023-05-17T15:40:10.912Z,4.37
2023-05-17T15:42:56.530Z,10.05
2023-05-17T15:45:41.650Z,4.70
2023-05-17T15:48:29.270Z,5.85
2023-05-17T15:51:14.521Z,5.43
2023-05-17T15:53:59.773Z,6.77
2023-05-17T15:56:45.040Z,7.15
2023-05-17T15:59:30.394Z,5.68
2023-05-17T16:02:15.773Z,7.97
2023-05-17T16:05:03.572Z,7.43
2023-05-17T16:07:49.456Z,4.03
2023-05-17T16:10:38.231Z,6.55
2023-05-17T16:13:23.683Z,4.63
2023-05-17T16:16:09.154Z,3.97
2023-05-17T16:18:54.866Z,8.32
2023-05-17T16:21:40.080Z,10.63
2023-05-17T16:24:25.411Z,6.80
2023-05-17T16:27:10.974Z,6.78
2023-05-17T16:29:56.199Z,7.28
2023-05-17T16:32:41.868Z,9.52
2023-05-17T16:35:27.130Z,7.33
2023-05-17T16:38:12.422Z,6.15
2023-05-17T16:40:57.441Z,8.32
2023-05-17T16:43:42.863Z,5.25
2023-05-17T16:46:28.533Z,6.13
2023-05-17T16:49:13.824Z,7.07
2023-05-17T16:51:59.318Z,9.68
2023-05-17T16:54:44.743Z,5.70
2023-05-17T16:57:31.596Z,5.65
2023-05-17T17:00:17.559Z,6.40
2023-05-17T17:03:03.043Z,6.53
2023-05-17T17:05:48.304Z,6.07
2023-05-17T17:08:33.722Z,5.72
2023-05-17T17:11:22.791Z,7.38
2023-05-17T17:14:08.328Z,7.05
2023-05-17T17:16:53.556Z,8.97
2023-05-17T17:19:38.980Z,7.57
2023-05-17T17:22:24.560Z,6.97
2023-05-17T17:25:10.015Z,7.90
2023-05-17T17:27:55.206Z,7.40
2023-05-17T17:30:40.646Z,6.63
2023-05-17T17:33:27.252Z,10.20
2023-05-17T17:36:13.541Z,7.90
2023-05-17T17:38:58.486Z,7.57
2023-05-17T17:41:44.183Z,8.15
2023-05-17T17:44:29.278Z,7.47
2023-05-17T17:47:14.985Z,7.82
2023-05-17T17:50:00.480Z,7.35
2023-05-17T17:52:54.364Z,5.45
2023-05-17T17:55:39.847Z,7.65
2023-05-17T17:58:25.161Z,9.07
2023-05-17T18:01:10.633Z,5.72
2023-05-17T18:03:55.924Z,5.38
2023-05-17T18:06:42.086Z,7.13
2023-05-17T18:09:27.198Z,7.72
2023-05-17T18:12:12.721Z,5.63
2023-05-17T18:14:58.113Z,5.78
2023-05-17T18:17:43.407Z,8.95
2023-05-17T18:20:28.967Z,7.55
2023-05-17T18:23:14.592Z,7.57
2023-05-17T18:26:00.379Z,4.73
2023-05-17T18:28:45.507Z,6.43
2023-05-17T18:31:31.598Z,6.47
2023-05-17T18:34:17.669Z,6.28
2023-05-17T18:37:03.177Z,6.00
2023-05-17T18:39:48.479Z,8.13
2023-05-17T18:42:33.575Z,5.70
2023-05-17T18:45:19.320Z,7.93
2023-05-17T18:48:04.619Z,7.80
2023-05-17T18:50:50.090Z,6.05
2023-05-17T18:53:36.172Z,5.90
2023-05-17T18:56:23.330Z,9.05
2023-05-17T18:59:08.639Z,10.23
2023-05-17T19:01:53.783Z,7.07
2023-05-17T19:04:39.108Z,5.72
2023-05-17T19:07:25.302Z,6.87
2023-05-17T19:10:10.903Z,7.30
2023-05-17T19:12:56.148Z,7.25
2023-05-17T19:15:41.883Z,5.88
2023-05-17T19:18:26.977Z,7.10
2023-05-17T19:21:12.499Z,6.50
2023-05-17T19:23:57.950Z,6.85
2023-05-17T19:26:43.047Z,5.40
2023-05-17T19:29:31.246Z,5.85
2023-05-17T19:32:16.273Z,5.50
2023-05-17T19:35:03.227Z,6.37
2023-05-17T19:37:48.579Z,7.00
2023-05-17T19:40:34.337Z,6.22
2023-05-17T19:43:19.421Z,10.05
2023-05-17T19:46:09.198Z,10.93
2023-05-17T19:48:55.656Z,14.13
2023-05-17T19:51:40.878Z,19.40
2023-05-17T19:54:27.311Z,29.52
2023-05-17T19:57:12.598Z,44.10
2023-05-17T19:59:57.724Z,37.72
2023-05-17T20:02:43.438Z,38.37
2023-05-17T20:05:28.784Z,44.30
2023-05-17T20:08:14.137Z,32.70
2023-05-17T20:10:59.245Z,36.65
2023-05-17T20:13:44.765Z,34.42
2023-05-17T20:16:30.959Z,39.23
2023-05-17T20:19:16.439Z,37.83
2023-05-17T20:22:01.764Z,37.53
2023-05-17T20:24:46.892Z,33.58
2023-05-17T20:27:32.520Z,36.65
2023-05-17T20:30:17.948Z,37.33
2023-05-17T20:33:04.109Z,30.88
2023-05-17T20:35:49.203Z,35.15
2023-05-17T20:38:34.580Z,38.35
2023-05-17T20:41:20.425Z,29.75
2023-05-17T20:44:06.134Z,33.67
2023-05-17T20:46:52.029Z,30.90
2023-05-17T20:49:37.206Z,26.80
2023-05-17T20:55:13.124Z,27.42
2023-05-17T20:57:58.610Z,26.87
2023-05-17T21:00:44.074Z,24.08
2023-05-17T21:03:33.877Z,22.67
2023-05-17T21:06:19.481Z,23.17
2023-05-17T21:09:05.088Z,23.25
2023-05-17T21:11:52.210Z,20.00
2023-05-17T21:14:37.188Z,21.08
2023-05-17T21:17:22.604Z,16.98
2023-05-17T21:20:08.574Z,19.75
2023-05-17T21:22:54.008Z,20.63
2023-05-17T21:25:39.487Z,18.97
2023-05-17T21:28:24.988Z,23.13
2023-05-17T21:31:10.258Z,25.90
2023-05-17T21:33:55.902Z,21.98
2023-05-17T21:36:41.132Z,25.65
2023-05-17T21:39:26.769Z,22.83
2023-05-17T21:42:12.101Z,22.00
2023-05-17T21:44:57.636Z,19.58
2023-05-17T21:47:42.728Z,20.00
2023-05-17T21:50:28.382Z,22.70
2023-05-17T21:53:13.971Z,19.53
2023-05-17T21:56:02.606Z,18.35
2023-05-17T21:58:48.503Z,18.95
2023-05-17T22:01:34.028Z,20.38
2023-05-17T22:04:19.267Z,15.93
2023-05-17T22:07:04.431Z,15.93
2023-05-17T22:09:49.693Z,15.25
2023-05-17T22:12:36.110Z,18.80
2023-05-17T22:15:22.043Z,15.23
2023-05-17T22:18:07.060Z,15.88
2023-05-17T22:20:53.260Z,16.20
2023-05-17T22:23:38.622Z,19.25
2023-05-17T22:26:24.456Z,16.77
2023-05-17T22:29:10.060Z,17.40
2023-05-17T22:31:55.265Z,16.08
2023-05-17T22:34:41.100Z,18.03
2023-05-17T22:37:26.230Z,14.13
2023-05-17T22:40:11.993Z,17.13
2023-05-17T22:42:58.392Z,13.30
2023-05-17T22:45:43.559Z,14.77
2023-05-17T22:48:30.365Z,16.33
2023-05-17T22:51:15.857Z,16.48
2023-05-17T22:54:01.322Z,12.10
2023-05-17T22:56:46.905Z,17.10
2023-05-17T22:59:33.130Z,18.38
2023-05-17T23:18:00.854Z,16.40
2023-05-17T23:20:46.382Z,18.27
2023-05-17T23:23:31.474Z,14.70
2023-05-17T23:26:17.412Z,14.68
2023-05-17T23:29:03.534Z,14.95
